Terminal Aerodrome Forecast
Issued by NWS Chicago, IL

Home | Current Version | Previous Version | Text Only | Print | Product List | Glossary Off
Versions: 1 2 3 4 5 6 7 8 9 10 11 12 13 14 15 16 17 18 19 20 21 22 23 24 25 26 27 28 29 30 31 32 33

000
FTUS43 KLOT 240600 AAA
TAFRFD
TAF AMD
KRFD 240655Z 2407/2506 24006KT P6SM SCT080
     FM240700 29007KT P6SM OVC025
     FM241900 28010KT P6SM SCT025 SCT100
     FM250400 33004KT P6SM BKN020=

USA.gov is the U.S. government's official web portal to all federal, state and local government web resources and services.